Time;durP1;ratioP1;P1;durP2;ratioP2;P2;SDS_P1;SDS_P2;PMS_P1;PMS_P2;Temp;Humidity;BMP_temperature;BMP_pressure;BME280_temperature;BME280_humidity;BME280_pressure;Samples;Min_cycle;Max_cycle;Signal;HPM_P1;HPM_P2
2023/05/09 00:00:11;;;;;;;15.63;8.23;;;10.70;99.90;;;;;;5010798;28;20037;-75
2023/05/09 00:02:38;;;;;;;13.95;8.15;;;10.70;99.90;;;;;;5008521;28;20030;-74
2023/05/09 00:05:04;;;;;;;10.18;6.85;;;10.60;99.90;;;;;;5009570;28;20627;-74
2023/05/09 00:07:30;;;;;;;13.18;7.53;;;10.70;99.90;;;;;;5012082;28;20428;-75
2023/05/09 00:09:56;;;;;;;15.50;8.85;;;10.80;99.90;;;;;;5008893;28;20033;-74
2023/05/09 00:12:22;;;;;;;16.83;8.82;;;10.80;99.90;;;;;;5008854;28;20073;-74
2023/05/09 00:14:50;;;;;;;17.95;8.93;;;10.90;99.90;;;;;;5008428;28;20041;-73
2023/05/09 00:17:17;;;;;;;18.35;10.13;;;10.90;99.90;;;;;;5012348;28;20037;-78
2023/05/09 00:19:43;;;;;;;19.23;9.68;;;10.90;99.90;;;;;;5011791;28;20034;-75
2023/05/09 00:22:08;;;;;;;17.35;9.43;;;11.00;99.90;;;;;;5007511;28;20034;-74
2023/05/09 00:24:34;;;;;;;17.25;9.38;;;11.00;99.90;;;;;;5013784;28;20128;-75
2023/05/09 00:27:00;;;;;;;19.38;10.45;;;11.00;99.90;;;;;;5009095;28;20060;-74
2023/05/09 00:29:26;;;;;;;10.68;5.85;;;11.00;99.90;;;;;;5010627;28;20077;-74
2023/05/09 00:31:51;;;;;;;5.00;3.90;;;10.90;99.90;;;;;;5011006;28;20104;-74
2023/05/09 00:34:17;;;;;;;3.97;3.40;;;10.90;99.90;;;;;;5009899;28;20057;-74
2023/05/09 00:36:42;;;;;;;4.10;3.08;;;10.90;99.90;;;;;;5009419;28;20037;-74
2023/05/09 00:39:08;;;;;;;3.85;3.13;;;10.80;99.90;;;;;;5008377;28;20133;-73
2023/05/09 00:41:34;;;;;;;4.93;3.47;;;10.70;99.90;;;;;;5009599;28;20034;-75
2023/05/09 00:44:00;;;;;;;3.45;3.15;;;10.70;99.90;;;;;;5008375;28;20391;-74
2023/05/09 00:46:25;;;;;;;4.15;3.75;;;10.70;99.90;;;;;;5010080;28;20037;-75
2023/05/09 00:48:51;;;;;;;6.40;4.10;;;10.60;99.90;;;;;;5004440;28;20041;-74
2023/05/09 00:51:17;;;;;;;5.03;3.63;;;10.60;99.90;;;;;;5007826;28;20037;-74
2023/05/09 00:53:44;;;;;;;4.93;3.85;;;10.40;99.90;;;;;;5003986;28;20038;-74
2023/05/09 00:56:11;;;;;;;6.20;4.47;;;10.40;99.90;;;;;;5008696;28;20042;-74
2023/05/09 00:58:37;;;;;;;5.35;4.35;;;10.50;99.90;;;;;;5003977;28;20034;-74
2023/05/09 01:01:03;;;;;;;7.95;4.38;;;10.50;99.90;;;;;;5016220;28;20041;-81
2023/05/09 01:03:30;;;;;;;6.55;4.68;;;10.50;99.90;;;;;;5028530;28;20516;-81
2023/05/09 01:06:09;;;;;;;7.65;5.30;;;10.40;99.90;;;;;;5026079;28;20042;-81
2023/05/09 01:09:01;;;;;;;8.50;5.55;;;10.50;99.90;;;;;;5021141;28;20415;-82
2023/05/09 01:11:54;;;;;;;12.07;6.65;;;10.40;99.90;;;;;;5026213;28;20128;-81
2023/05/09 01:14:42;;;;;;;10.65;6.90;;;10.50;99.90;;;;;;5029799;28;20054;-81
2023/05/09 01:17:30;;;;;;;12.63;7.00;;;10.50;99.90;;;;;;5028715;28;20140;-80
2023/05/09 01:20:01;;;;;;;11.98;6.20;;;10.50;99.90;;;;;;5025539;28;20064;-81
2023/05/09 01:22:34;;;;;;;9.35;6.32;;;10.40;99.90;;;;;;5030837;28;20038;-80
2023/05/09 01:25:19;;;;;;;9.52;6.20;;;10.50;99.90;;;;;;5027698;28;20038;-81
2023/05/09 01:27:52;;;;;;;13.45;6.55;;;10.40;99.90;;;;;;5026476;28;20026;-82
2023/05/09 01:30:19;;;;;;;11.13;6.70;;;10.40;99.90;;;;;;5028698;28;20045;-80
2023/05/09 01:32:48;;;;;;;10.65;6.60;;;10.40;99.90;;;;;;5032299;28;20029;-82
2023/05/09 01:35:15;;;;;;;12.27;7.28;;;10.40;99.90;;;;;;5027509;28;20030;-81
2023/05/09 01:37:48;;;;;;;16.05;7.90;;;10.40;99.90;;;;;;5030288;28;20026;-81
2023/05/09 01:40:16;;;;;;;15.98;8.23;;;10.40;99.90;;;;;;5030467;28;20024;-81
2023/05/09 01:42:46;;;;;;;12.48;8.30;;;10.30;99.90;;;;;;5029858;28;20021;-82
2023/05/09 01:45:14;;;;;;;16.25;9.07;;;10.30;99.90;;;;;;5025555;28;20061;-82
2023/05/09 01:47:41;;;;;;;19.27;10.10;;;10.40;99.90;;;;;;5028556;28;20092;-81
2023/05/09 01:50:09;;;;;;;17.83;10.10;;;10.40;99.90;;;;;;5027748;28;20027;-80
2023/05/09 01:52:36;;;;;;;16.75;9.88;;;10.40;99.90;;;;;;5023866;28;20045;-82
2023/05/09 01:55:04;;;;;;;17.00;9.40;;;10.40;99.90;;;;;;5030349;28;20022;-81
2023/05/09 01:57:31;;;;;;;17.58;9.35;;;10.50;99.90;;;;;;5032290;28;20033;-82
2023/05/09 01:59:57;;;;;;;19.15;10.65;;;10.50;99.90;;;;;;5028033;28;20030;-81
2023/05/09 02:02:26;;;;;;;20.90;10.95;;;10.50;99.90;;;;;;5034430;28;20476;-81
2023/05/09 02:04:54;;;;;;;17.55;9.95;;;10.50;99.90;;;;;;5026917;28;20371;-81
2023/05/09 02:07:20;;;;;;;;;;;10.50;99.90;;;;;;5031423;28;20030;-81
2023/05/09 02:09:48;;;;;;;19.75;10.20;;;10.40;99.90;;;;;;5028686;28;20017;-80
2023/05/09 02:12:13;;;;;;;18.73;11.70;;;10.50;99.90;;;;;;5023603;28;20018;-82
2023/05/09 02:14:39;;;;;;;19.33;11.30;;;10.40;99.90;;;;;;5029651;28;20029;-81
2023/05/09 02:17:05;;;;;;;16.73;9.77;;;10.40;99.90;;;;;;5034773;28;20025;-82
2023/05/09 02:19:35;;;;;;;15.23;9.25;;;10.40;99.90;;;;;;5032974;28;20026;-82
2023/05/09 02:22:01;;;;;;;21.45;10.40;;;10.30;99.90;;;;;;5033796;28;20028;-81
2023/05/09 02:24:28;;;;;;;20.48;10.20;;;10.30;99.90;;;;;;5030201;28;20096;-81
2023/05/09 02:26:55;;;;;;;17.90;10.27;;;10.30;99.90;;;;;;5034372;28;20022;-80
2023/05/09 02:29:26;;;;;;;19.23;10.52;;;10.10;99.90;;;;;;5009753;22;20102;-27
2023/05/09 02:31:53;;;;;;;19.95;10.35;;;10.10;99.90;;;;;;4986219;28;20038;-27
2023/05/09 02:34:19;;;;;;;19.08;11.55;;;10.10;99.90;;;;;;4982548;28;20511;-27
2023/05/09 02:36:46;;;;;;;18.08;10.35;;;10.10;99.90;;;;;;4986009;28;20057;-27
2023/05/09 02:39:13;;;;;;;18.95;10.82;;;10.10;99.90;;;;;;4987327;28;20027;-30
2023/05/09 02:41:46;;;;;;;18.23;10.53;;;10.20;99.90;;;;;;4992630;28;20030;-29
2023/05/09 02:44:13;;;;;;;21.10;10.38;;;10.10;99.90;;;;;;5014494;28;20304;-29
2023/05/09 02:46:42;;;;;;;18.67;10.95;;;10.10;99.90;;;;;;5009663;28;20038;-30
2023/05/09 02:49:09;;;;;;;18.38;10.70;;;9.90;99.90;;;;;;4990812;28;20031;-30
2023/05/09 02:51:36;;;;;;;19.20;10.32;;;9.90;99.90;;;;;;4991513;28;20542;-30
2023/05/09 02:54:02;;;;;;;20.42;11.50;;;9.90;99.90;;;;;;4990883;28;20083;-30
2023/05/09 02:56:29;;;;;;;15.30;9.52;;;9.90;99.90;;;;;;4996985;28;20041;-30
2023/05/09 02:58:56;;;;;;;18.05;9.60;;;9.90;99.90;;;;;;4988699;28;20030;-29
2023/05/09 03:01:22;;;;;;;16.85;9.10;;;9.80;99.90;;;;;;4989603;28;20037;-28
2023/05/09 03:03:49;;;;;;;14.13;8.30;;;9.80;99.90;;;;;;5006071;28;20038;-30
2023/05/09 03:06:15;;;;;;;13.98;8.68;;;9.80;99.90;;;;;;4988776;28;20031;-30
2023/05/09 03:08:42;;;;;;;16.42;8.90;;;9.70;99.90;;;;;;5007978;28;20513;-30
2023/05/09 03:11:08;;;;;;;15.38;9.00;;;9.70;99.90;;;;;;4994048;28;20018;-29
2023/05/09 03:13:35;;;;;;;16.13;10.15;;;9.70;99.90;;;;;;4991851;28;20065;-29
2023/05/09 03:16:01;;;;;;;19.20;9.60;;;9.70;99.90;;;;;;4991309;28;20053;-29
2023/05/09 03:18:28;;;;;;;16.13;9.25;;;9.50;99.90;;;;;;4987747;28;20035;-29
2023/05/09 03:20:54;;;;;;;16.73;8.93;;;9.50;99.90;;;;;;4990474;28;20038;-30
2023/05/09 03:23:20;;;;;;;18.15;9.90;;;9.50;99.90;;;;;;4991361;28;20041;-29
2023/05/09 03:25:47;;;;;;;15.45;9.20;;;9.50;99.90;;;;;;4991508;28;20446;-26
2023/05/09 03:28:13;;;;;;;14.68;9.10;;;9.50;99.90;;;;;;5004840;28;20384;-30
2023/05/09 03:30:40;;;;;;;19.60;9.95;;;9.60;99.90;;;;;;5004469;28;20403;-29
2023/05/09 03:33:07;;;;;;;17.77;9.45;;;9.50;99.90;;;;;;4986252;28;20025;-29
2023/05/09 03:35:33;;;;;;;14.73;9.27;;;9.50;99.90;;;;;;5001394;28;20064;-29
2023/05/09 03:38:00;;;;;;;14.45;8.73;;;9.50;99.90;;;;;;4987937;28;20456;-29
2023/05/09 03:40:26;;;;;;;14.77;8.50;;;9.50;99.90;;;;;;5006396;28;20038;-30
2023/05/09 03:42:52;;;;;;;18.98;9.85;;;9.40;99.90;;;;;;4989464;28;20030;-29
2023/05/09 03:45:18;;;;;;;17.67;9.82;;;9.30;99.90;;;;;;4991960;28;20026;-29
2023/05/09 03:47:45;;;;;;;16.45;8.90;;;9.30;99.90;;;;;;4991793;28;20049;-29
2023/05/09 03:50:12;;;;;;;18.75;9.32;;;9.20;99.90;;;;;;4991201;28;20025;-29
2023/05/09 03:52:39;;;;;;;16.48;9.15;;;9.30;99.90;;;;;;4989195;28;20084;-30
2023/05/09 03:55:06;;;;;;;18.55;10.27;;;9.20;99.90;;;;;;4990552;28;20023;-29
2023/05/09 03:57:34;;;;;;;19.90;11.07;;;9.30;99.90;;;;;;5005874;28;20154;-30
2023/05/09 04:00:01;;;;;;;19.75;11.35;;;9.30;99.90;;;;;;4990969;28;20026;-29
2023/05/09 04:02:28;;;;;;;19.70;10.63;;;9.30;99.90;;;;;;4980659;28;20463;-29
2023/05/09 04:04:54;;;;;;;19.23;10.75;;;9.30;99.90;;;;;;4982711;28;20165;-29
2023/05/09 04:07:21;;;;;;;22.73;10.98;;;9.20;99.90;;;;;;5005445;28;20463;-30
2023/05/09 04:09:48;;;;;;;21.20;10.70;;;9.20;99.90;;;;;;4988310;28;20030;-29
2023/05/09 04:12:14;;;;;;;22.60;10.73;;;9.20;99.90;;;;;;4988214;28;20065;-30
2023/05/09 04:14:40;;;;;;;19.25;10.73;;;9.20;99.90;;;;;;4978883;28;20030;-30
2023/05/09 04:17:06;;;;;;;22.55;11.40;;;9.30;99.90;;;;;;4987624;28;20040;-29
2023/05/09 04:19:32;;;;;;;22.08;10.98;;;9.40;99.90;;;;;;4992926;28;20404;-29
2023/05/09 04:21:59;;;;;;;22.67;12.45;;;9.40;99.90;;;;;;4993442;28;20393;-30
2023/05/09 04:24:25;;;;;;;21.92;11.60;;;9.40;99.90;;;;;;4990932;28;20069;-29
2023/05/09 04:26:52;;;;;;;21.33;10.95;;;9.40;99.90;;;;;;4987385;28;20034;-30
2023/05/09 04:29:18;;;;;;;22.88;11.65;;;9.40;99.90;;;;;;4994583;28;20038;-30
2023/05/09 04:31:45;;;;;;;23.33;12.95;;;9.50;99.90;;;;;;5000904;28;20264;-30
2023/05/09 04:34:15;;;;;;;19.33;10.70;;;9.50;99.90;;;;;;5001535;28;20525;-29
2023/05/09 04:36:41;;;;;;;20.65;10.88;;;9.50;99.90;;;;;;4991986;28;20710;-30
2023/05/09 04:39:07;;;;;;;19.88;11.23;;;9.50;99.90;;;;;;5004619;28;20038;-29
2023/05/09 04:41:43;;;;;;;18.80;10.35;;;9.60;99.90;;;;;;4993260;28;20400;-29
2023/05/09 04:44:09;;;;;;;18.65;9.77;;;9.50;99.90;;;;;;4987512;28;20113;-30
2023/05/09 04:46:44;;;;;;;22.35;11.07;;;9.40;99.90;;;;;;4992397;28;20177;-29
2023/05/09 04:49:10;;;;;;;21.02;11.25;;;9.40;99.90;;;;;;4989421;28;20023;-29
2023/05/09 04:51:36;;;;;;;19.83;10.93;;;9.40;99.90;;;;;;4986190;28;20045;-29
2023/05/09 04:54:02;;;;;;;19.10;9.85;;;9.50;99.90;;;;;;4988275;28;20023;-29
2023/05/09 04:56:40;;;;;;;20.17;11.18;;;9.60;99.90;;;;;;4939924;28;20074;-30
2023/05/09 04:59:13;;;;;;;20.60;10.65;;;9.70;99.90;;;;;;4994177;28;20026;-30
2023/05/09 05:01:42;;;;;;;17.83;10.90;;;9.70;99.90;;;;;;4987554;28;20038;-29
2023/05/09 05:04:08;;;;;;;20.23;11.10;;;9.70;99.90;;;;;;4992737;28;20022;-30
2023/05/09 05:06:38;;;;;;;19.38;11.18;;;9.70;99.90;;;;;;5008659;28;20025;-29
2023/05/09 05:09:16;;;;;;;26.33;10.90;;;9.70;99.90;;;;;;4985268;28;20030;-29
2023/05/09 05:11:52;;;;;;;22.75;11.38;;;9.70;99.90;;;;;;5003346;28;20022;-29
2023/05/09 05:14:24;;;;;;;21.73;12.30;;;9.70;99.90;;;;;;4982874;28;20113;-29
2023/05/09 05:16:50;;;;;;;20.63;10.77;;;9.80;99.90;;;;;;4987956;28;20030;-29
2023/05/09 05:19:19;;;;;;;20.83;11.10;;;9.80;99.90;;;;;;4995178;28;20502;-29
2023/05/09 05:21:49;;;;;;;19.20;11.43;;;10.00;99.90;;;;;;4987234;28;20104;-29
2023/05/09 05:24:26;;;;;;;20.27;11.65;;;10.10;99.90;;;;;;4993287;28;20626;-30
2023/05/09 05:26:53;;;;;;;22.77;11.93;;;10.20;99.90;;;;;;5007290;28;20026;-29
2023/05/09 05:29:22;;;;;;;21.90;11.73;;;10.20;99.90;;;;;;4995120;28;20898;-29
2023/05/09 05:31:47;;;;;;;23.45;12.55;;;10.30;99.90;;;;;;4971728;28;20435;-29
2023/05/09 05:34:15;;;;;;;20.08;11.82;;;10.40;99.90;;;;;;4964754;28;20026;-29
2023/05/09 05:36:40;;;;;;;20.75;11.60;;;10.30;99.90;;;;;;4960057;28;20023;-29
2023/05/09 05:39:06;;;;;;;21.27;12.38;;;10.40;99.90;;;;;;4968425;28;20330;-33
2023/05/09 05:41:32;;;;;;;23.30;12.27;;;10.40;99.90;;;;;;4969227;28;20022;-30
2023/05/09 05:43:57;;;;;;;19.98;11.60;;;10.50;99.90;;;;;;4967360;28;20240;-29
2023/05/09 05:46:23;;;;;;;23.67;12.55;;;10.50;99.90;;;;;;4970965;28;20042;-29
2023/05/09 05:48:48;;;;;;;19.25;11.25;;;10.50;99.90;;;;;;4967252;28;20125;-29
2023/05/09 05:51:14;;;;;;;21.92;12.50;;;10.60;99.90;;;;;;4969934;28;20026;-29
2023/05/09 05:53:40;;;;;;;20.63;12.75;;;10.80;99.90;;;;;;4967269;28;20031;-30
2023/05/09 05:56:05;;;;;;;22.30;13.07;;;10.90;99.90;;;;;;4970920;28;20388;-29
2023/05/09 05:58:31;;;;;;;19.58;10.77;;;11.00;99.90;;;;;;4969211;28;20712;-30
2023/05/09 06:00:57;;;;;;;19.95;11.80;;;11.10;99.90;;;;;;4969237;28;20505;-30
2023/05/09 06:03:22;;;;;;;21.30;12.90;;;11.00;99.90;;;;;;4970133;28;20480;-30
2023/05/09 06:05:48;;;;;;;20.63;11.25;;;11.00;99.90;;;;;;4969395;28;20035;-30
2023/05/09 06:08:14;;;;;;;17.90;11.63;;;11.10;99.90;;;;;;4974341;28;20031;-31
2023/05/09 06:10:39;;;;;;;21.17;12.82;;;11.10;99.90;;;;;;4967963;28;20030;-29
2023/05/09 06:13:05;;;;;;;20.92;11.55;;;11.10;99.90;;;;;;4979479;28;20113;-30
2023/05/09 06:15:30;;;;;;;19.73;10.98;;;11.20;99.90;;;;;;4974391;28;20026;-30
2023/05/09 06:17:56;;;;;;;16.52;11.32;;;11.20;99.90;;;;;;4965600;28;20049;-30
2023/05/09 06:20:22;;;;;;;18.95;10.98;;;11.30;99.90;;;;;;4968821;28;20416;-29
2023/05/09 06:22:47;;;;;;;20.27;11.98;;;11.30;99.90;;;;;;4968941;28;20054;-29
2023/05/09 06:25:13;;;;;;;20.65;10.93;;;11.40;99.90;;;;;;4974130;28;20034;-29
2023/05/09 06:27:38;;;;;;;17.95;10.75;;;11.40;99.90;;;;;;4975358;28;20066;-29
2023/05/09 06:30:05;;;;;;;18.05;11.50;;;11.50;99.90;;;;;;4992459;28;20018;-29
2023/05/09 06:32:30;;;;;;;20.23;10.93;;;11.50;99.90;;;;;;4992005;28;20037;-29
2023/05/09 06:34:56;;;;;;;16.60;10.93;;;11.50;99.90;;;;;;4993518;28;20029;-29
2023/05/09 06:37:21;;;;;;;17.30;10.43;;;11.60;99.90;;;;;;4996833;28;20062;-29
2023/05/09 06:39:47;;;;;;;17.48;11.18;;;11.70;99.90;;;;;;4988645;28;20038;-29
2023/05/09 06:42:13;;;;;;;18.48;11.00;;;11.80;99.90;;;;;;4992669;28;20026;-29
2023/05/09 06:44:38;;;;;;;20.67;11.70;;;11.90;99.90;;;;;;4988555;28;20392;-29
2023/05/09 06:47:04;;;;;;;16.83;10.88;;;11.90;99.90;;;;;;4995855;28;20033;-30
2023/05/09 06:49:29;;;;;;;15.70;10.98;;;11.90;99.90;;;;;;4994434;28;20022;-29
2023/05/09 06:51:55;;;;;;;16.88;10.55;;;12.00;99.90;;;;;;4994551;28;20093;-29
2023/05/09 06:54:21;;;;;;;16.65;11.00;;;12.10;99.90;;;;;;4994067;28;20480;-29
2023/05/09 06:56:46;;;;;;;16.52;10.00;;;12.30;99.90;;;;;;4993850;28;20023;-29
2023/05/09 06:59:12;;;;;;;15.57;10.45;;;12.30;99.90;;;;;;4985852;28;20058;-29
2023/05/09 07:01:41;;;;;;;16.08;10.65;;;12.40;99.90;;;;;;4992385;28;20027;-29
2023/05/09 07:04:06;;;;;;;17.80;10.52;;;12.40;99.90;;;;;;4977919;28;20534;-30
2023/05/09 07:06:32;;;;;;;18.10;10.90;;;12.60;99.90;;;;;;4999459;28;20030;-29
2023/05/09 07:08:58;;;;;;;16.58;10.43;;;12.70;99.90;;;;;;4995281;28;20058;-30
2023/05/09 07:11:23;;;;;;;17.00;11.45;;;12.80;99.90;;;;;;4998950;28;20030;-29
2023/05/09 07:13:49;;;;;;;19.15;12.00;;;13.00;99.90;;;;;;4991538;28;20042;-29
2023/05/09 07:16:16;;;;;;;19.70;10.98;;;13.30;99.90;;;;;;4993625;28;20048;-29
2023/05/09 07:18:42;;;;;;;15.27;10.20;;;13.50;99.90;;;;;;4994776;28;20506;-29
2023/05/09 07:21:07;;;;;;;17.40;10.98;;;13.50;99.90;;;;;;4989675;28;20026;-29
2023/05/09 07:23:33;;;;;;;22.63;11.40;;;13.40;99.90;;;;;;4995627;28;20029;-29
2023/05/09 07:25:58;;;;;;;21.20;11.88;;;13.40;99.90;;;;;;4995417;28;20185;-30
2023/05/09 07:28:24;;;;;;;20.48;10.93;;;13.50;99.90;;;;;;4998993;28;20046;-30
2023/05/09 07:30:50;;;;;;;18.20;10.48;;;13.70;99.90;;;;;;4995137;28;20038;-29
2023/05/09 07:33:16;;;;;;;16.42;10.25;;;14.00;99.90;;;;;;5017488;28;20037;-29
2023/05/09 07:35:41;;;;;;;16.85;10.13;;;14.20;99.90;;;;;;5021465;28;20036;-29
2023/05/09 07:38:07;;;;;;;17.70;11.23;;;14.30;99.90;;;;;;5018835;28;20033;-29
2023/05/09 07:40:35;;;;;;;18.38;11.50;;;14.30;99.90;;;;;;5021337;28;20045;-28
2023/05/09 07:43:00;;;;;;;15.40;10.35;;;14.40;99.90;;;;;;5007529;28;20065;-29
2023/05/09 07:45:26;;;;;;;18.02;11.30;;;14.40;99.90;;;;;;5021079;28;20150;-32
2023/05/09 07:47:52;;;;;;;16.73;11.00;;;14.30;99.90;;;;;;5013793;28;20034;-30
2023/05/09 07:50:17;;;;;;;17.58;11.68;;;14.30;99.90;;;;;;5015557;28;20045;-31
2023/05/09 07:52:44;;;;;;;16.60;10.60;;;14.30;99.90;;;;;;5011724;28;20454;-29
2023/05/09 07:55:11;;;;;;;16.23;10.85;;;14.40;99.90;;;;;;5011152;28;20112;-28
2023/05/09 07:57:38;;;;;;;18.63;10.68;;;14.40;99.90;;;;;;5016561;28;20453;-28
2023/05/09 08:00:07;;;;;;;17.57;11.87;;;14.50;99.90;;;;;;5015402;28;20115;-28
2023/05/09 08:02:33;;;;;;;15.18;10.38;;;14.70;99.90;;;;;;5014815;28;20038;-29
2023/05/09 08:04:59;;;;;;;16.92;10.13;;;14.70;99.90;;;;;;5009438;28;20045;-29
2023/05/09 08:07:25;;;;;;;16.13;10.68;;;14.70;99.90;;;;;;5000965;28;20108;-28
2023/05/09 08:09:50;;;;;;;15.98;10.27;;;15.00;99.90;;;;;;5018543;28;20168;-29
2023/05/09 08:12:16;;;;;;;16.23;10.13;;;15.10;99.90;;;;;;4996080;28;20275;-28
2023/05/09 08:14:41;;;;;;;17.30;11.43;;;15.20;99.90;;;;;;5016666;28;20034;-30
2023/05/09 08:17:07;;;;;;;14.00;9.85;;;15.30;99.90;;;;;;5011566;28;20714;-29
2023/05/09 08:19:33;;;;;;;15.32;9.98;;;15.30;99.90;;;;;;5012203;28;20044;-29
2023/05/09 08:21:59;;;;;;;16.77;10.77;;;15.20;99.90;;;;;;5012072;28;20030;-29
2023/05/09 08:24:25;;;;;;;13.38;9.38;;;15.40;99.90;;;;;;5013488;28;20032;-29
2023/05/09 08:26:50;;;;;;;14.70;9.60;;;15.60;99.90;;;;;;5008562;28;20027;-29
2023/05/09 08:29:16;;;;;;;13.57;10.00;;;15.70;99.90;;;;;;5000650;28;20419;-29
2023/05/09 08:31:42;;;;;;;17.08;11.30;;;15.60;99.90;;;;;;4995831;28;20482;-28
2023/05/09 08:34:08;;;;;;;16.65;11.02;;;15.50;99.90;;;;;;5014876;28;20021;-29
2023/05/09 08:36:34;;;;;;;16.65;11.98;;;15.80;99.90;;;;;;5015997;28;20814;-28
2023/05/09 08:38:59;;;;;;;20.35;11.75;;;15.80;99.90;;;;;;5012147;28;20232;-28
2023/05/09 08:41:28;;;;;;;16.02;11.18;;;15.80;99.90;;;;;;5013939;28;20032;-29
2023/05/09 08:43:55;;;;;;;13.80;10.40;;;16.00;99.90;;;;;;5006402;28;20083;-29
2023/05/09 08:46:42;;;;;;;16.55;11.38;;;15.80;99.90;;;;;;5007583;28;20067;-28
2023/05/09 08:49:08;;;;;;;16.35;10.90;;;15.80;99.90;;;;;;5005591;28;20109;-30
2023/05/09 08:51:37;;;;;;;15.73;10.73;;;15.90;99.90;;;;;;5012096;28;20072;-30
2023/05/09 08:54:04;;;;;;;16.38;10.38;;;16.10;99.90;;;;;;5008252;28;20026;-29
2023/05/09 08:56:30;;;;;;;16.05;10.88;;;16.30;99.90;;;;;;4999952;28;20068;-29
2023/05/09 08:58:55;;;;;;;17.02;10.82;;;16.30;99.90;;;;;;5013248;28;20790;-28
2023/05/09 09:01:22;;;;;;;16.95;11.55;;;16.40;99.90;;;;;;5007725;28;20107;-28
2023/05/09 09:03:48;;;;;;;18.15;12.02;;;16.40;99.90;;;;;;5016292;28;20056;-28
2023/05/09 09:06:16;;;;;;;18.73;12.57;;;16.30;99.90;;;;;;5013421;28;20021;-29
2023/05/09 09:08:44;;;;;;;18.02;11.70;;;16.50;99.90;;;;;;5010090;28;20017;-28
2023/05/09 09:11:12;;;;;;;17.35;11.13;;;16.70;99.90;;;;;;5014645;28;20079;-29
2023/05/09 09:13:40;;;;;;;17.15;10.90;;;16.80;99.90;;;;;;5008313;28;20029;-33
2023/05/09 09:16:10;;;;;;;15.77;10.68;;;16.70;99.90;;;;;;5011260;28;20079;-31
2023/05/09 09:18:36;;;;;;;16.83;11.40;;;16.80;99.90;;;;;;5009267;28;20025;-28
2023/05/09 09:21:06;;;;;;;16.40;11.80;;;16.90;99.90;;;;;;5010177;28;20030;-28
2023/05/09 09:23:32;;;;;;;15.85;10.35;;;16.90;99.90;;;;;;5008988;28;20459;-29
2023/05/09 09:26:05;;;;;;;17.38;10.63;;;17.00;99.90;;;;;;4993555;28;20482;-29
2023/05/09 09:28:33;;;;;;;15.88;9.85;;;17.10;99.90;;;;;;5013702;28;20515;-28
2023/05/09 09:30:59;;;;;;;13.90;10.00;;;17.10;99.90;;;;;;5014832;28;20034;-29
2023/05/09 09:33:26;;;;;;;14.68;10.57;;;17.20;99.90;;;;;;5013840;28;20514;-29
2023/05/09 09:35:53;;;;;;;13.30;9.68;;;17.40;99.90;;;;;;5012275;28;20033;-29
2023/05/09 09:38:20;;;;;;;16.27;10.50;;;17.70;99.90;;;;;;5013507;28;20167;-31
2023/05/09 09:40:55;;;;;;;15.30;10.85;;;17.60;99.90;;;;;;5012578;28;20526;-29
2023/05/09 09:43:28;;;;;;;19.58;11.27;;;17.70;99.90;;;;;;5007183;28;20022;-29
2023/05/09 09:45:54;;;;;;;15.32;10.43;;;17.70;99.90;;;;;;5013674;28;20026;-28
2023/05/09 09:48:24;;;;;;;16.02;10.38;;;17.90;99.90;;;;;;5006007;28;20431;-29
2023/05/09 09:50:50;;;;;;;16.45;10.90;;;18.00;99.90;;;;;;5010330;28;20030;-29
2023/05/09 09:53:19;;;;;;;16.67;10.10;;;18.10;99.90;;;;;;5012726;28;20045;-29
2023/05/09 09:55:52;;;;;;;13.70;9.57;;;18.30;99.90;;;;;;5007864;28;20049;-30
2023/05/09 09:58:20;;;;;;;14.98;10.65;;;18.40;99.90;;;;;;5014169;28;20540;-29
2023/05/09 10:00:46;;;;;;;15.63;10.70;;;18.50;99.90;;;;;;5009673;28;20029;-29
2023/05/09 10:03:16;;;;;;;13.52;9.30;;;18.40;99.90;;;;;;5010073;28;20479;-30
2023/05/09 10:05:43;;;;;;;12.02;8.98;;;18.50;99.90;;;;;;5017285;28;20049;-29
2023/05/09 10:08:08;;;;;;;13.55;9.90;;;18.80;99.90;;;;;;5011309;28;20112;-29
2023/05/09 10:10:35;;;;;;;13.13;9.55;;;18.90;99.90;;;;;;5012066;28;20075;-29
2023/05/09 10:13:11;;;;;;;13.90;9.77;;;18.80;99.90;;;;;;5006173;28;20026;-29
2023/05/09 10:15:37;;;;;;;15.18;9.60;;;18.80;99.90;;;;;;5010613;28;20044;-30
2023/05/09 10:18:04;;;;;;;14.93;9.75;;;18.70;99.90;;;;;;5009831;28;20390;-29
2023/05/09 10:20:30;;;;;;;15.90;11.52;;;19.00;99.90;;;;;;5011474;28;20033;-30
2023/05/09 10:23:00;;;;;;;15.40;10.10;;;19.00;99.90;;;;;;5009939;28;20037;-29
2023/05/09 10:25:47;;;;;;;15.02;10.23;;;18.80;99.90;;;;;;5010792;28;20116;-29
2023/05/09 10:28:20;;;;;;;16.30;10.23;;;18.90;99.90;;;;;;5014790;28;20518;-29
2023/05/09 10:31:16;;;;;;;12.90;8.65;;;18.90;99.90;;;;;;5014749;28;20119;-29
2023/05/09 10:33:49;;;;;;;9.40;6.32;;;18.90;99.90;;;;;;5014646;28;20414;-29
2023/05/09 10:36:20;;;;;;;9.77;6.72;;;19.30;99.90;;;;;;5013113;28;20530;-29
2023/05/09 10:38:53;;;;;;;10.13;6.93;;;19.70;99.90;;;;;;5014737;28;20030;-30
2023/05/09 10:41:23;;;;;;;7.43;5.63;;;20.00;99.90;;;;;;5015485;28;20038;-29
2023/05/09 10:43:49;;;;;;;8.68;5.90;;;20.40;99.90;;;;;;5016063;28;21732;-29
2023/05/09 10:46:15;;;;;;;10.52;6.38;;;20.60;99.90;;;;;;4994186;28;20083;-29
2023/05/09 10:48:41;;;;;;;10.73;7.22;;;20.60;99.90;;;;;;5014261;28;20025;-29
2023/05/09 10:51:08;;;;;;;10.52;6.30;;;20.30;99.90;;;;;;5012835;28;20022;-30
2023/05/09 10:53:40;;;;;;;7.45;5.95;;;20.20;99.90;;;;;;5017506;28;20092;-30
2023/05/09 10:56:06;;;;;;;9.85;6.22;;;20.60;99.90;;;;;;5012540;28;20073;-29
2023/05/09 10:58:34;;;;;;;8.40;6.00;;;20.60;99.90;;;;;;5011737;28;20061;-29
2023/05/09 11:01:02;;;;;;;6.75;4.65;;;20.60;99.90;;;;;;5017046;28;20788;-29
2023/05/09 11:03:48;;;;;;;8.43;5.40;;;20.80;99.90;;;;;;5012982;28;21198;-29
2023/05/09 11:06:47;;;;;;;7.63;5.43;;;20.90;99.90;;;;;;5010380;28;20053;-28
2023/05/09 11:09:27;;;;;;;8.82;6.07;;;21.10;99.90;;;;;;5013803;28;20026;-28
2023/05/09 11:12:13;;;;;;;11.10;6.32;;;21.20;99.90;;;;;;5013538;28;20723;-28
2023/05/09 11:14:43;;;;;;;9.00;6.45;;;21.20;99.90;;;;;;5014147;28;20030;-30
2023/05/09 11:17:23;;;;;;;6.35;4.65;;;21.20;99.90;;;;;;5015621;28;20540;-31
2023/05/09 11:19:49;;;;;;;6.53;4.57;;;21.30;99.90;;;;;;5012520;28;20480;-30
2023/05/09 11:22:22;;;;;;;6.40;4.95;;;21.50;99.90;;;;;;5016556;28;20025;-28
2023/05/09 11:24:50;;;;;;;6.80;4.43;;;21.80;99.90;;;;;;5020956;28;20069;-30
2023/05/09 11:27:24;;;;;;;9.57;6.65;;;21.90;99.90;;;;;;5014722;28;20184;-29
2023/05/09 11:29:55;;;;;;;10.55;7.65;;;21.30;99.90;;;;;;5017737;28;20025;-29
2023/05/09 11:32:25;;;;;;;10.52;7.53;;;20.80;99.90;;;;;;5021507;28;20499;-28
2023/05/09 11:34:51;;;;;;;10.85;7.47;;;20.50;99.90;;;;;;5011871;28;20571;-28
2023/05/09 11:37:18;;;;;;;9.27;7.32;;;20.10;99.90;;;;;;5013610;28;20036;-29
2023/05/09 11:40:03;;;;;;;12.38;7.40;;;19.90;99.90;;;;;;5013016;28;20061;-29
2023/05/09 11:42:29;;;;;;;9.18;7.18;;;20.20;99.90;;;;;;5017007;28;20427;-29
2023/05/09 11:44:56;;;;;;;9.15;7.32;;;20.50;99.90;;;;;;5016726;28;20041;-31
2023/05/09 11:47:23;;;;;;;8.85;6.28;;;20.60;99.90;;;;;;5011306;28;20033;-29
2023/05/09 11:49:48;;;;;;;8.50;6.72;;;20.50;99.90;;;;;;5013237;28;20021;-28
2023/05/09 11:52:15;;;;;;;9.02;7.03;;;20.30;99.90;;;;;;5016883;28;20039;-29
2023/05/09 11:54:41;;;;;;;9.23;6.85;;;20.10;99.90;;;;;;5010532;28;20044;-30
2023/05/09 11:57:07;;;;;;;8.90;6.70;;;20.00;99.90;;;;;;5011823;28;20044;-30
2023/05/09 11:59:34;;;;;;;8.75;6.50;;;20.00;99.90;;;;;;5016547;28;20038;-31
2023/05/09 12:02:06;;;;;;;10.52;6.60;;;20.10;99.90;;;;;;5016788;28;20121;-29
2023/05/09 12:04:32;;;;;;;7.82;6.18;;;20.20;99.90;;;;;;5015460;28;20030;-29
2023/05/09 12:06:59;;;;;;;10.18;6.53;;;20.60;99.90;;;;;;5012045;28;20030;-29
2023/05/09 12:09:31;;;;;;;7.47;5.65;;;20.80;99.90;;;;;;5020496;28;20030;-31
2023/05/09 12:11:58;;;;;;;7.05;5.05;;;21.10;99.90;;;;;;5014090;28;20116;-30
2023/05/09 12:14:34;;;;;;;8.25;5.75;;;21.30;99.90;;;;;;5012665;28;20113;-30
2023/05/09 12:17:00;;;;;;;9.73;5.75;;;21.00;99.90;;;;;;5013556;28;20474;-32
2023/05/09 12:19:27;;;;;;;7.45;5.43;;;21.00;99.90;;;;;;5007759;28;20037;-29
2023/05/09 12:22:00;;;;;;;7.43;5.85;;;21.10;99.90;;;;;;5015597;28;20037;-29
2023/05/09 12:24:28;;;;;;;7.05;5.70;;;21.00;99.90;;;;;;5003571;28;20076;-30
2023/05/09 12:26:54;;;;;;;7.50;6.10;;;20.90;99.90;;;;;;5018757;28;20040;-30
2023/05/09 12:29:21;;;;;;;7.13;5.68;;;20.80;99.90;;;;;;5010672;28;20293;-30
2023/05/09 12:31:47;;;;;;;8.23;5.47;;;20.40;99.90;;;;;;5016237;28;20038;-31
2023/05/09 12:34:14;;;;;;;6.10;4.82;;;20.20;99.90;;;;;;5012063;28;20202;-31
2023/05/09 12:36:42;;;;;;;7.45;4.95;;;20.10;99.90;;;;;;5010971;28;20053;-32
2023/05/09 12:39:11;;;;;;;6.07;4.90;;;20.30;99.90;;;;;;5011206;28;20057;-28